createdAt,value
2022-11-26T00:02:53.807Z,5.03
2022-11-26T00:08:35.121Z,5.03
2022-11-26T00:13:55.770Z,5.09
2022-11-26T00:19:16.770Z,5.06
2022-11-26T00:24:37.912Z,4.99
2022-11-26T00:29:58.968Z,5.06
2022-11-26T00:35:19.985Z,5.08
2022-11-26T00:40:40.894Z,5.04
2022-11-26T00:46:01.729Z,5.11
2022-11-26T00:51:27.535Z,5.12
2022-11-26T00:56:48.491Z,5.25
2022-11-26T01:02:09.376Z,5.23
2022-11-26T01:07:30.435Z,5.33
2022-11-26T01:12:51.735Z,5.44
2022-11-26T01:18:14.133Z,5.44
2022-11-26T01:23:34.804Z,5.55
2022-11-26T01:28:55.760Z,5.56
2022-11-26T01:34:16.780Z,5.73
2022-11-26T01:39:37.530Z,5.80
2022-11-26T01:44:58.299Z,5.87
2022-11-26T01:50:28.291Z,5.84
2022-11-26T01:55:51.309Z,5.75
2022-11-26T02:01:12.324Z,5.79
2022-11-26T02:06:34.084Z,5.91
2022-11-26T02:11:54.586Z,6.03
2022-11-26T02:17:19.180Z,6.09
2022-11-26T02:22:49.202Z,6.10
2022-11-26T02:28:28.381Z,6.04
2022-11-26T02:33:57.113Z,5.98
2022-11-26T02:39:19.705Z,6.05
2022-11-26T02:44:44.640Z,6.21
2022-11-26T02:50:08.617Z,6.22
2022-11-26T02:55:31.673Z,6.16
2022-11-26T03:00:53.303Z,6.18
2022-11-26T03:06:15.031Z,6.23
2022-11-26T03:11:35.783Z,6.17
2022-11-26T03:16:56.759Z,6.23
2022-11-26T03:22:17.637Z,6.23
2022-11-26T03:27:38.438Z,6.08
2022-11-26T03:32:59.098Z,5.95
2022-11-26T03:38:19.964Z,5.86
2022-11-26T03:43:40.642Z,5.92
2022-11-26T03:49:01.360Z,5.90
2022-11-26T03:54:22.556Z,5.80
2022-11-26T03:59:43.217Z,5.74
2022-11-26T04:05:04.514Z,5.55
2022-11-26T04:10:25.330Z,5.44
2022-11-26T04:15:46.273Z,5.44
2022-11-26T04:21:07.926Z,5.37
2022-11-26T04:26:28.690Z,5.32
2022-11-26T04:31:49.730Z,5.34
2022-11-26T04:37:10.382Z,5.42
2022-11-26T04:42:31.209Z,5.36
2022-11-26T04:47:51.972Z,5.33
2022-11-26T04:53:12.927Z,5.28
2022-11-26T04:58:33.437Z,5.22
2022-11-26T05:03:54.393Z,5.24
2022-11-26T05:09:15.201Z,5.22
2022-11-26T05:14:36.389Z,5.11
2022-11-26T05:19:57.354Z,5.10
2022-11-26T05:25:18.125Z,5.13
2022-11-26T05:30:38.782Z,5.07
2022-11-26T05:35:59.904Z,5.09
2022-11-26T05:41:20.690Z,5.09
2022-11-26T05:46:42.532Z,5.06
2022-11-26T05:52:03.269Z,5.13
2022-11-26T05:57:24.097Z,5.26
2022-11-26T06:02:45.242Z,5.43
2022-11-26T06:08:06.064Z,5.30
2022-11-26T06:13:27.012Z,5.24
2022-11-26T06:18:47.962Z,5.18
2022-11-26T06:24:08.412Z,5.15
2022-11-26T06:29:29.514Z,5.14
2022-11-26T06:34:53.935Z,5.13
2022-11-26T06:40:16.901Z,5.19
2022-11-26T06:45:37.719Z,5.18
2022-11-26T06:51:02.624Z,5.22
2022-11-26T06:56:23.672Z,5.20
2022-11-26T07:01:44.876Z,5.29
2022-11-26T07:07:05.872Z,5.29
2022-11-26T07:12:26.738Z,5.31
2022-11-26T07:17:47.724Z,5.34
2022-11-26T07:23:08.640Z,5.32
2022-11-26T07:28:29.888Z,5.40
2022-11-26T07:33:51.859Z,5.45
2022-11-26T07:39:12.615Z,5.39
2022-11-26T07:44:33.180Z,5.35
2022-11-26T07:49:54.016Z,5.35
2022-11-26T07:55:14.608Z,5.41
2022-11-26T08:00:35.448Z,5.47
2022-11-26T08:05:56.095Z,5.55
2022-11-26T08:11:21.563Z,5.62
2022-11-26T08:16:42.446Z,5.63
2022-11-26T08:22:03.180Z,5.64
2022-11-26T08:27:23.767Z,5.69
2022-11-26T08:32:44.353Z,5.75
2022-11-26T08:38:05.117Z,5.94
2022-11-26T08:43:45.087Z,6.16
2022-11-26T08:49:07.134Z,6.12
2022-11-26T08:54:28.124Z,6.12
2022-11-26T08:59:49.084Z,6.12
2022-11-26T09:05:09.651Z,6.13
2022-11-26T09:10:30.500Z,6.10
2022-11-26T09:15:51.524Z,6.20
2022-11-26T09:21:12.520Z,6.34
2022-11-26T09:26:33.922Z,6.63
2022-11-26T09:32:22.090Z,6.61
2022-11-26T09:37:37.818Z,6.57
2022-11-26T09:43:14.775Z,6.55
2022-11-26T09:48:36.356Z,6.43
2022-11-26T09:53:57.736Z,6.52
2022-11-26T09:59:20.247Z,6.55
2022-11-26T10:04:41.778Z,6.61
2022-11-26T10:10:16.507Z,6.61
2022-11-26T10:15:43.120Z,6.81
2022-11-26T10:21:10.749Z,6.83
2022-11-26T10:26:35.590Z,6.80
2022-11-26T10:32:01.994Z,6.72
2022-11-26T10:37:24.608Z,6.66
2022-11-26T10:42:52.212Z,6.63
2022-11-26T10:48:26.796Z,6.68
2022-11-26T10:53:58.073Z,6.91
2022-11-26T10:59:37.897Z,7.09
2022-11-26T11:05:03.578Z,7.35
2022-11-26T11:10:25.488Z,7.56
2022-11-26T11:15:46.346Z,7.66
2022-11-26T11:21:07.488Z,7.83
2022-11-26T11:26:28.456Z,8.05
2022-11-26T11:31:49.351Z,7.96
2022-11-26T11:37:18.790Z,7.91
2022-11-26T11:42:40.604Z,7.74
2022-11-26T11:48:09.602Z,7.78
2022-11-26T11:53:50.673Z,7.72
2022-11-26T11:59:58.055Z,7.64
2022-11-26T12:05:37.427Z,7.46
2022-11-26T12:11:01.288Z,7.37
2022-11-26T12:16:25.058Z,7.28
2022-11-26T12:21:57.384Z,7.33
2022-11-26T12:27:21.295Z,7.45
2022-11-26T12:32:45.657Z,7.50
2022-11-26T12:38:15.320Z,7.45
2022-11-26T12:43:53.199Z,7.44
2022-11-26T12:49:40.308Z,7.47
2022-11-26T12:55:12.990Z,7.57
2022-11-26T13:00:38.071Z,7.69
2022-11-26T13:06:19.214Z,7.91
2022-11-26T13:11:54.109Z,8.08
2022-11-26T13:17:17.107Z,8.31
2022-11-26T13:22:46.941Z,8.53
2022-11-26T13:28:26.498Z,8.34
2022-11-26T13:34:05.936Z,8.09
2022-11-26T13:39:38.998Z,7.91
2022-11-26T13:45:18.739Z,7.83
2022-11-26T13:50:47.215Z,7.63
2022-11-26T13:56:09.307Z,8.44
2022-11-26T14:01:37.153Z,8.41
2022-11-26T14:07:03.873Z,8.04
2022-11-26T14:12:44.589Z,7.81
2022-11-26T14:18:05.542Z,7.67
2022-11-26T14:23:42.884Z,7.60
2022-11-26T14:29:06.220Z,7.67
2022-11-26T14:34:26.961Z,7.66
2022-11-26T14:39:57.613Z,7.57
2022-11-26T14:45:19.555Z,7.61
2022-11-26T14:50:40.387Z,7.61
2022-11-26T14:56:01.768Z,7.55
2022-11-26T15:01:24.157Z,7.48
2022-11-26T15:06:45.629Z,7.47
2022-11-26T15:12:16.304Z,7.41
2022-11-26T15:17:40.707Z,7.48
2022-11-26T15:23:03.675Z,7.44
2022-11-26T15:28:24.501Z,7.40
2022-11-26T15:33:45.617Z,7.39
2022-11-26T15:39:08.029Z,7.35
2022-11-26T15:44:29.730Z,7.31
2022-11-26T15:49:54.928Z,7.26
2022-11-26T15:55:22.340Z,7.27
2022-11-26T16:00:43.798Z,7.27
2022-11-26T16:06:07.363Z,7.26
2022-11-26T16:11:28.906Z,7.18
2022-11-26T16:16:53.158Z,7.11
2022-11-26T16:22:15.644Z,7.07
2022-11-26T16:27:36.298Z,7.07
2022-11-26T16:32:57.171Z,7.04
2022-11-26T16:38:22.393Z,7.08
2022-11-26T16:43:42.810Z,7.10
2022-11-26T16:49:04.333Z,7.06
2022-11-26T16:54:24.745Z,6.93
2022-11-26T16:59:48.630Z,6.76
2022-11-26T17:05:09.641Z,7.81
2022-11-26T17:10:30.432Z,8.57
2022-11-26T17:15:51.794Z,8.02
2022-11-26T17:21:12.708Z,7.74
2022-11-26T17:26:33.272Z,7.57
2022-11-26T17:31:54.053Z,7.37
2022-11-26T17:37:25.926Z,7.29
2022-11-26T17:42:47.330Z,7.15
2022-11-26T17:48:11.176Z,7.46
2022-11-26T17:53:31.827Z,7.30
2022-11-26T17:58:53.007Z,7.34
2022-11-26T18:04:13.633Z,7.35
2022-11-26T18:09:34.894Z,7.36
2022-11-26T18:14:56.816Z,7.38
2022-11-26T18:20:18.958Z,7.21
2022-11-26T18:25:40.920Z,7.14
2022-11-26T18:31:01.980Z,7.04
2022-11-26T18:36:24.842Z,6.95
2022-11-26T18:41:45.427Z,6.91
2022-11-26T18:47:09.312Z,6.87
2022-11-26T18:52:30.134Z,6.87
2022-11-26T18:57:51.689Z,6.89
2022-11-26T19:03:15.994Z,6.76
2022-11-26T19:08:38.973Z,6.61
2022-11-26T19:14:00.272Z,6.48
2022-11-26T19:19:20.944Z,6.49
2022-11-26T19:24:41.614Z,6.45
2022-11-26T19:30:02.275Z,6.33
2022-11-26T19:35:25.440Z,6.22
2022-11-26T19:40:46.077Z,6.29
2022-11-26T19:46:11.223Z,6.28
2022-11-26T19:51:32.057Z,6.29
2022-11-26T19:56:52.676Z,6.33
2022-11-26T20:02:13.556Z,6.33
2022-11-26T20:07:34.613Z,6.21
2022-11-26T20:12:55.556Z,6.12
2022-11-26T20:18:16.834Z,6.12
2022-11-26T20:23:38.089Z,6.13
2022-11-26T20:29:03.551Z,6.07
2022-11-26T20:34:26.298Z,6.17
2022-11-26T20:39:49.461Z,6.29
2022-11-26T20:45:12.048Z,6.38
2022-11-26T20:50:32.540Z,6.40
2022-11-26T20:55:54.198Z,6.49
2022-11-26T21:01:19.644Z,6.75
2022-11-26T21:06:41.905Z,6.73
2022-11-26T21:12:03.092Z,6.63
2022-11-26T21:17:24.132Z,6.52
2022-11-26T21:22:44.878Z,6.38
2022-11-26T21:28:06.360Z,6.29
2022-11-26T21:33:27.365Z,6.34
2022-11-26T21:38:48.859Z,6.42
2022-11-26T21:44:09.556Z,6.30
2022-11-26T21:49:31.355Z,6.27
2022-11-26T21:54:53.825Z,6.25
2022-11-26T22:00:14.980Z,6.12
2022-11-26T22:05:35.896Z,6.15
2022-11-26T22:10:56.745Z,6.10
2022-11-26T22:16:19.863Z,6.03
2022-11-26T22:21:43.779Z,5.84
2022-11-26T22:27:04.500Z,5.80
2022-11-26T22:32:25.405Z,5.85
2022-11-26T22:37:46.279Z,5.80
2022-11-26T22:43:07.317Z,5.76
2022-11-26T22:48:29.014Z,5.85
2022-11-26T22:53:50.513Z,5.73
2022-11-26T22:59:12.395Z,5.54
2022-11-26T23:04:33.138Z,5.32
2022-11-26T23:09:54.077Z,5.15
2022-11-26T23:15:14.914Z,5.14
2022-11-26T23:20:35.862Z,5.12
2022-11-26T23:25:56.674Z,5.01
2022-11-26T23:31:19.900Z,4.90
2022-11-26T23:36:41.469Z,4.88
2022-11-26T23:42:02.036Z,4.82
2022-11-26T23:47:22.744Z,4.87
2022-11-26T23:52:43.722Z,4.76
2022-11-26T23:58:04.593Z,4.58
